Time;durP1;ratioP1;P1;durP2;ratioP2;P2;SDS_P1;SDS_P2;PMS_P1;PMS_P2;Temp;Humidity;BMP_temperature;BMP_pressure;BME280_temperature;BME280_humidity;BME280_pressure;Samples;Min_cycle;Max_cycle;Signal;HPM_P1;HPM_P2
2022/04/05 00:00:27;;;;;;;9.10;2.60;;;5.90;99.90;;;;;;5058403;28;20495;-68
2022/04/05 00:03:15;;;;;;;9.83;3.53;;;5.90;99.90;;;;;;5065858;28;20655;-69
2022/04/05 00:06:03;;;;;;;11.73;3.00;;;5.80;99.90;;;;;;5063083;28;20460;-68
2022/04/05 00:08:51;;;;;;;11.83;2.60;;;5.80;99.90;;;;;;5060599;28;20541;-68
2022/04/05 00:11:39;;;;;;;7.20;2.43;;;5.80;99.90;;;;;;5067058;28;20549;-68
2022/04/05 00:14:27;;;;;;;5.63;2.30;;;5.80;99.90;;;;;;5064051;28;20501;-68
2022/04/05 00:17:18;;;;;;;6.67;2.70;;;5.80;99.90;;;;;;5065416;28;20913;-68
2022/04/05 00:20:08;;;;;;;9.13;2.43;;;5.70;99.90;;;;;;5065377;28;20485;-67
2022/04/05 00:22:58;;;;;;;8.67;2.20;;;5.80;99.90;;;;;;5067508;28;20481;-68
2022/04/05 00:25:46;;;;;;;10.27;2.80;;;5.80;99.90;;;;;;5060674;28;20457;-68
2022/04/05 00:28:34;;;;;;;8.70;3.37;;;5.80;99.90;;;;;;5060476;28;20486;-68
2022/04/05 00:31:22;;;;;;;13.33;2.93;;;5.70;99.90;;;;;;5061038;28;20452;-69
2022/04/05 00:34:13;;;;;;;17.37;2.90;;;5.70;99.90;;;;;;5061758;28;20879;-68
2022/04/05 00:37:01;;;;;;;7.37;2.30;;;5.80;99.90;;;;;;5061903;28;20450;-68
2022/04/05 00:39:50;;;;;;;9.57;2.90;;;5.80;99.90;;;;;;5060723;28;20471;-67
2022/04/05 00:42:38;;;;;;;7.83;2.13;;;5.80;99.90;;;;;;5063679;28;20458;-68
2022/04/05 00:45:27;;;;;;;9.90;2.07;;;5.70;99.90;;;;;;5066709;28;20445;-67
2022/04/05 00:48:27;;;;;;;4.73;2.10;;;5.60;99.90;;;;;;5069181;28;20975;-68
2022/04/05 00:51:17;;;;;;;12.90;3.40;;;5.70;99.90;;;;;;5065342;28;20521;-68
2022/04/05 00:54:06;;;;;;;14.47;3.07;;;5.60;99.90;;;;;;5065166;28;20489;-67
2022/04/05 00:56:56;;;;;;;9.63;1.97;;;5.60;99.90;;;;;;5068205;28;20822;-68
2022/04/05 00:59:48;;;;;;;6.27;2.50;;;5.70;99.90;;;;;;5065759;28;20463;-68
2022/04/05 01:02:38;;;;;;;5.07;1.90;;;5.70;99.90;;;;;;5065674;28;20453;-69
2022/04/05 01:05:28;;;;;;;7.40;2.20;;;5.60;99.90;;;;;;5065826;28;20461;-68
2022/04/05 01:08:20;;;;;;;4.33;1.77;;;5.60;99.90;;;;;;5067188;28;20451;-68
2022/04/05 01:11:08;;;;;;;8.93;2.10;;;5.60;99.90;;;;;;5065550;28;20460;-68
2022/04/05 01:13:56;;;;;;;4.00;2.00;;;5.60;99.90;;;;;;5068542;28;20563;-69
2022/04/05 01:16:45;;;;;;;5.37;2.23;;;5.60;99.90;;;;;;5066873;28;20834;-68
2022/04/05 01:19:34;;;;;;;7.80;1.90;;;5.70;99.90;;;;;;5071716;28;20454;-68
2022/04/05 01:22:22;;;;;;;5.70;1.80;;;5.60;99.90;;;;;;5075044;28;20848;-68
2022/04/05 01:25:15;;;;;;;4.17;1.80;;;5.60;99.90;;;;;;5069509;28;20458;-68
2022/04/05 01:28:03;;;;;;;9.83;2.10;;;5.70;99.90;;;;;;5066717;28;20453;-68
2022/04/05 01:30:52;;;;;;;6.93;2.00;;;5.70;99.90;;;;;;5066566;28;20536;-68
2022/04/05 01:33:40;;;;;;;6.57;2.33;;;5.70;99.90;;;;;;5077709;28;20522;-66
2022/04/05 01:36:28;;;;;;;10.40;2.33;;;5.70;99.90;;;;;;5070977;28;20458;-67
2022/04/05 01:39:18;;;;;;;12.33;3.23;;;5.70;99.90;;;;;;5064610;28;20512;-68
2022/04/05 01:42:09;;;;;;;7.17;1.80;;;5.70;99.90;;;;;;5071065;28;20594;-68
2022/04/05 01:44:57;;;;;;;7.73;1.97;;;5.70;99.90;;;;;;5067808;28;20513;-68
2022/04/05 01:47:46;;;;;;;9.17;2.27;;;5.70;99.90;;;;;;5069089;28;20467;-68
2022/04/05 01:50:34;;;;;;;5.20;1.97;;;5.60;99.90;;;;;;5065220;28;20543;-68
2022/04/05 01:53:22;;;;;;;9.17;2.00;;;5.50;99.90;;;;;;5069920;28;20872;-68
2022/04/05 01:56:11;;;;;;;4.00;1.70;;;5.50;99.90;;;;;;5069462;28;20906;-67
2022/04/05 01:59:01;;;;;;;6.30;1.50;;;5.50;99.90;;;;;;5070412;28;20477;-68
2022/04/05 02:01:50;;;;;;;6.40;1.77;;;5.50;99.90;;;;;;5067494;28;20556;-68
2022/04/05 02:04:39;;;;;;;5.40;1.50;;;5.50;99.90;;;;;;5076012;28;20462;-68
2022/04/05 02:07:29;;;;;;;6.13;2.20;;;5.50;99.90;;;;;;5069693;28;20581;-68
2022/04/05 02:10:17;;;;;;;6.37;1.53;;;5.50;99.90;;;;;;5062274;28;20450;-68
2022/04/05 02:13:05;;;;;;;6.57;2.00;;;5.50;99.90;;;;;;5069560;28;20519;-67
2022/04/05 02:15:55;;;;;;;5.93;2.00;;;5.50;99.90;;;;;;5080714;28;20545;-68
2022/04/05 02:18:43;;;;;;;4.40;1.73;;;5.50;99.90;;;;;;5074306;28;20453;-67
2022/04/05 02:21:31;;;;;;;9.13;1.80;;;5.50;99.90;;;;;;5071414;28;20606;-68
2022/04/05 02:24:19;;;;;;;7.90;2.60;;;5.50;99.90;;;;;;5059854;28;20586;-68
2022/04/05 02:27:07;;;;;;;6.50;1.40;;;5.50;99.90;;;;;;5069063;28;20485;-67
2022/04/05 02:29:56;;;;;;;4.67;2.03;;;5.50;99.90;;;;;;5067109;28;20547;-67
2022/04/05 02:32:45;;;;;;;5.27;1.20;;;5.30;99.90;;;;;;5061705;28;20540;-67
2022/04/05 02:35:34;;;;;;;5.03;1.27;;;5.30;99.90;;;;;;5035402;23;20646;-70
2022/04/05 02:38:22;;;;;;;4.57;1.20;;;5.20;99.90;;;;;;5018493;28;20440;-70
2022/04/05 02:41:11;;;;;;;7.30;1.90;;;5.20;99.90;;;;;;5018126;28;21307;-70
2022/04/05 02:44:00;;;;;;;6.70;1.30;;;5.20;99.90;;;;;;5024057;28;20547;-70
2022/04/05 02:46:48;;;;;;;4.33;1.70;;;5.10;99.90;;;;;;5039961;28;20542;-69
2022/04/05 02:49:37;;;;;;;4.40;1.67;;;5.10;99.90;;;;;;5042042;28;20463;-70
2022/04/05 02:52:25;;;;;;;5.90;1.40;;;5.00;99.90;;;;;;5036563;28;20821;-70
2022/04/05 02:55:15;;;;;;;4.80;1.97;;;5.00;99.90;;;;;;5038244;28;20512;-70
2022/04/05 02:58:03;;;;;;;2.00;1.50;;;5.00;99.90;;;;;;5036087;28;20545;-70
2022/04/05 03:00:52;;;;;;;6.50;1.80;;;5.00;99.90;;;;;;5036676;28;20468;-70
2022/04/05 03:03:40;;;;;;;7.70;2.17;;;5.00;99.90;;;;;;5028315;28;20455;-70
2022/04/05 03:06:29;;;;;;;4.67;1.80;;;5.00;99.90;;;;;;5037054;28;20443;-70
2022/04/05 03:09:18;;;;;;;5.83;1.53;;;5.00;99.90;;;;;;5036844;28;21081;-72
2022/04/05 03:12:07;;;;;;;2.70;1.53;;;5.00;99.90;;;;;;5041783;28;20550;-71
2022/04/05 03:14:55;;;;;;;5.77;1.60;;;5.00;99.90;;;;;;5038394;28;20957;-70
2022/04/05 03:17:44;;;;;;;9.00;1.50;;;5.00;99.90;;;;;;5043376;28;20496;-71
2022/04/05 03:20:32;;;;;;;5.43;3.00;;;4.90;99.90;;;;;;5040929;28;20589;-70
2022/04/05 03:23:22;;;;;;;6.03;1.93;;;4.90;99.90;;;;;;5039407;28;20459;-70
2022/04/05 03:26:11;;;;;;;3.70;1.60;;;4.90;99.90;;;;;;5038935;28;20458;-70
2022/04/05 03:28:59;;;;;;;4.03;1.60;;;4.90;99.90;;;;;;5037976;28;20451;-70
2022/04/05 03:31:48;;;;;;;5.13;1.20;;;4.90;99.90;;;;;;5048976;28;20946;-70
2022/04/05 03:34:36;;;;;;;4.03;1.60;;;4.90;99.90;;;;;;5044977;28;20581;-70
2022/04/05 03:37:25;;;;;;;8.03;2.10;;;4.90;99.90;;;;;;5044234;28;21023;-70
2022/04/05 03:40:14;;;;;;;9.90;2.57;;;4.90;99.90;;;;;;5038538;28;20873;-70
2022/04/05 03:43:03;;;;;;;4.83;1.57;;;4.80;99.90;;;;;;5040313;28;21017;-70
2022/04/05 03:45:51;;;;;;;3.93;1.30;;;4.80;99.90;;;;;;5039042;28;20513;-71
2022/04/05 03:48:39;;;;;;;5.73;1.10;;;4.80;99.90;;;;;;5030464;28;20471;-70
2022/04/05 03:51:28;;;;;;;10.93;1.80;;;4.80;99.90;;;;;;5044091;28;20443;-70
2022/04/05 03:54:16;;;;;;;4.20;1.40;;;4.80;99.90;;;;;;5042543;28;21192;-70
2022/04/05 03:57:05;;;;;;;5.77;1.70;;;4.80;99.90;;;;;;5039514;28;20461;-70
2022/04/05 03:59:54;;;;;;;4.63;1.73;;;4.80;99.90;;;;;;5026677;28;20565;-70
2022/04/05 04:02:42;;;;;;;8.93;2.07;;;4.80;99.90;;;;;;5038889;28;20488;-70
2022/04/05 04:05:30;;;;;;;6.00;1.90;;;4.80;99.90;;;;;;5037271;28;20555;-70
2022/04/05 04:08:18;;;;;;;6.23;2.00;;;4.80;99.90;;;;;;5042060;28;20585;-70
2022/04/05 04:11:06;;;;;;;3.77;1.50;;;4.80;99.90;;;;;;5037728;28;21020;-70
2022/04/05 04:13:55;;;;;;;5.90;1.70;;;4.80;99.90;;;;;;5042153;28;20479;-70
2022/04/05 04:16:44;;;;;;;5.93;1.57;;;4.80;99.90;;;;;;5040882;28;20896;-70
2022/04/05 04:19:32;;;;;;;6.97;1.40;;;4.70;99.90;;;;;;5045462;28;20487;-70
2022/04/05 04:22:20;;;;;;;5.87;1.90;;;4.70;99.90;;;;;;5042936;28;20450;-70
2022/04/05 04:25:09;;;;;;;5.00;1.70;;;4.70;99.90;;;;;;5034143;28;20613;-70
2022/04/05 04:27:57;;;;;;;4.37;1.73;;;4.70;99.90;;;;;;5036425;28;20668;-70
2022/04/05 04:30:46;;;;;;;4.97;1.80;;;4.60;99.90;;;;;;5038286;28;20447;-70
2022/04/05 04:33:35;;;;;;;5.97;1.80;;;4.70;99.90;;;;;;5039578;28;20489;-70
2022/04/05 04:36:23;;;;;;;6.77;2.07;;;4.70;99.90;;;;;;5020747;28;21061;-70
2022/04/05 04:39:12;;;;;;;7.23;1.50;;;4.70;99.90;;;;;;5022521;28;20597;-70
2022/04/05 04:42:01;;;;;;;7.50;2.07;;;4.70;99.90;;;;;;5018251;28;20501;-69
2022/04/05 04:44:49;;;;;;;5.83;2.00;;;4.70;99.90;;;;;;5018830;28;20475;-70
2022/04/05 04:47:39;;;;;;;7.37;1.67;;;4.70;99.90;;;;;;5020779;28;20542;-69
2022/04/05 04:50:27;;;;;;;6.70;2.20;;;4.70;99.90;;;;;;5017945;28;20706;-70
2022/04/05 04:53:15;;;;;;;3.67;1.40;;;4.70;99.90;;;;;;5015823;28;20444;-70
2022/04/05 04:56:04;;;;;;;4.87;1.50;;;4.70;99.90;;;;;;5018997;28;20514;-70
2022/04/05 04:58:57;;;;;;;3.87;1.33;;;4.60;99.90;;;;;;5022002;28;20465;-70
2022/04/05 05:01:45;;;;;;;7.70;2.00;;;4.60;99.90;;;;;;5010386;28;20439;-70
2022/04/05 05:04:35;;;;;;;6.73;1.70;;;4.60;99.90;;;;;;5009349;28;20575;-70
2022/04/05 05:07:23;;;;;;;7.90;2.10;;;4.60;99.90;;;;;;5017483;28;20452;-70
2022/04/05 05:10:12;;;;;;;6.40;2.37;;;4.60;99.90;;;;;;5014227;28;20553;-70
2022/04/05 05:13:00;;;;;;;8.30;1.93;;;4.60;99.90;;;;;;5017512;28;21121;-70
2022/04/05 05:15:48;;;;;;;5.53;1.70;;;4.60;99.90;;;;;;5018736;28;20496;-70
2022/04/05 05:18:37;;;;;;;7.03;1.90;;;4.70;99.90;;;;;;5011836;28;20614;-70
2022/04/05 05:21:27;;;;;;;4.77;2.63;;;4.70;99.90;;;;;;5019614;28;20959;-70
2022/04/05 05:24:15;;;;;;;4.57;1.50;;;4.70;99.90;;;;;;5014537;28;20476;-70
2022/04/05 05:27:04;;;;;;;5.10;1.60;;;4.70;99.90;;;;;;5016004;28;20547;-70
2022/04/05 05:29:52;;;;;;;3.63;1.97;;;4.70;99.90;;;;;;5010994;28;20551;-70
2022/04/05 05:32:44;;;;;;;6.30;2.27;;;4.70;99.90;;;;;;5018094;28;20553;-70
2022/04/05 05:35:33;;;;;;;9.17;1.87;;;4.70;99.90;;;;;;5031336;28;20498;-70
2022/04/05 05:38:22;;;;;;;6.30;1.80;;;4.70;99.90;;;;;;5018209;28;20451;-70
2022/04/05 05:41:10;;;;;;;4.47;1.63;;;4.70;99.90;;;;;;5022642;28;20990;-70
2022/04/05 05:43:58;;;;;;;3.53;1.57;;;4.70;99.90;;;;;;5029477;28;20889;-70
2022/04/05 05:46:47;;;;;;;2.37;1.30;;;4.80;99.90;;;;;;5033945;28;20493;-70
2022/04/05 05:49:35;;;;;;;9.10;2.00;;;4.70;99.90;;;;;;5033946;28;20529;-70
2022/04/05 05:52:23;;;;;;;4.80;1.40;;;4.80;99.90;;;;;;5038344;28;20470;-70
2022/04/05 05:55:14;;;;;;;6.23;1.70;;;4.80;99.90;;;;;;5033265;28;20571;-70
2022/04/05 05:58:03;;;;;;;6.07;1.90;;;4.80;99.90;;;;;;5041184;28;20657;-70
2022/04/05 06:00:52;;;;;;;5.83;1.60;;;4.80;99.90;;;;;;5032714;28;20833;-71
2022/04/05 06:03:40;;;;;;;2.97;1.40;;;4.80;99.90;;;;;;5026572;28;21275;-71
2022/04/05 06:06:28;;;;;;;7.40;1.50;;;4.80;99.90;;;;;;5034428;28;20452;-71
2022/04/05 06:09:17;;;;;;;4.50;1.40;;;4.80;99.90;;;;;;5039914;28;20797;-70
2022/04/05 06:12:07;;;;;;;6.67;1.63;;;4.80;99.90;;;;;;5033095;28;21134;-71
2022/04/05 06:14:56;;;;;;;5.33;1.60;;;4.90;99.90;;;;;;5041518;28;20491;-71
2022/04/05 06:17:46;;;;;;;3.47;1.47;;;4.90;99.90;;;;;;5039497;28;20835;-71
2022/04/05 06:20:34;;;;;;;8.17;1.70;;;5.00;99.90;;;;;;5037202;28;20485;-71
2022/04/05 06:23:22;;;;;;;7.20;1.50;;;5.00;99.90;;;;;;5032515;28;20978;-70
2022/04/05 06:26:11;;;;;;;4.50;2.17;;;5.00;99.90;;;;;;5035971;28;20454;-71
2022/04/05 06:29:00;;;;;;;5.93;1.70;;;5.10;99.90;;;;;;5031010;28;21041;-70
2022/04/05 06:31:49;;;;;;;5.90;1.80;;;5.10;99.90;;;;;;5036979;28;20463;-70
2022/04/05 06:34:43;;;;;;;3.13;1.60;;;5.20;99.90;;;;;;5032584;28;20482;-70
2022/04/05 06:37:31;;;;;;;8.00;2.70;;;5.20;99.90;;;;;;5035331;28;20635;-70
2022/04/05 06:40:19;;;;;;;7.33;1.87;;;5.30;99.90;;;;;;5034456;28;20537;-70
2022/04/05 06:43:07;;;;;;;9.53;1.90;;;5.30;99.90;;;;;;5038202;28;20799;-71
2022/04/05 06:45:57;;;;;;;5.90;1.77;;;5.30;99.90;;;;;;5027072;28;20475;-70
2022/04/05 06:48:46;;;;;;;7.07;1.77;;;5.40;99.90;;;;;;5031697;28;20451;-70
2022/04/05 06:51:34;;;;;;;4.33;1.80;;;5.40;99.90;;;;;;5038385;28;20462;-70
2022/04/05 06:54:23;;;;;;;5.77;1.90;;;5.50;99.90;;;;;;5031965;28;20486;-70
2022/04/05 06:57:11;;;;;;;3.97;1.43;;;5.50;99.90;;;;;;5024028;28;20603;-70
2022/04/05 07:00:03;;;;;;;7.63;1.63;;;5.60;99.90;;;;;;5042164;28;20446;-70
2022/04/05 07:02:53;;;;;;;5.30;1.50;;;5.70;99.90;;;;;;5028419;28;20512;-71
2022/04/05 07:05:42;;;;;;;8.43;1.90;;;5.70;99.90;;;;;;5028038;28;20494;-70
2022/04/05 07:08:30;;;;;;;4.10;1.30;;;5.80;99.90;;;;;;5032672;28;20525;-70
2022/04/05 07:11:19;;;;;;;6.80;1.60;;;5.80;99.90;;;;;;5024030;28;20462;-70
2022/04/05 07:14:08;;;;;;;5.40;2.30;;;5.70;99.90;;;;;;5035158;28;21286;-70
2022/04/05 07:16:56;;;;;;;5.60;1.53;;;5.70;99.90;;;;;;5030749;28;20477;-71
2022/04/05 07:19:45;;;;;;;5.30;1.50;;;5.70;99.90;;;;;;5022436;28;20669;-71
2022/04/05 07:22:34;;;;;;;5.00;1.63;;;5.80;99.90;;;;;;5025706;28;20534;-70
2022/04/05 07:25:22;;;;;;;3.60;1.53;;;5.80;99.90;;;;;;5034400;28;20495;-71
2022/04/05 07:28:10;;;;;;;2.87;1.20;;;5.80;99.90;;;;;;5036383;28;20454;-71
2022/04/05 07:30:58;;;;;;;3.80;1.50;;;5.80;99.90;;;;;;5030349;28;20483;-70
2022/04/05 07:33:48;;;;;;;2.50;1.33;;;5.80;99.90;;;;;;5032529;28;20447;-71
2022/04/05 07:36:37;;;;;;;6.17;1.90;;;5.90;99.90;;;;;;5033189;28;20478;-70
2022/04/05 07:39:25;;;;;;;3.27;1.20;;;5.90;99.90;;;;;;5030296;28;20544;-71
2022/04/05 07:42:14;;;;;;;4.37;1.40;;;6.00;99.90;;;;;;5040507;28;20911;-70
2022/04/05 07:45:02;;;;;;;6.33;1.47;;;6.00;99.90;;;;;;5037774;28;20593;-71
2022/04/05 07:47:50;;;;;;;6.20;1.80;;;6.10;99.90;;;;;;5041393;28;21087;-70
2022/04/05 07:50:38;;;;;;;2.80;1.20;;;6.20;99.90;;;;;;5038179;28;20454;-71
2022/04/05 07:53:33;;;;;;;3.60;1.60;;;6.20;99.90;;;;;;5035353;28;20527;-70
2022/04/05 07:56:21;;;;;;;4.20;1.80;;;6.20;99.90;;;;;;5039578;28;20458;-70
2022/04/05 07:59:10;;;;;;;3.47;1.37;;;6.30;99.90;;;;;;5043114;28;20574;-71
2022/04/05 08:01:58;;;;;;;5.80;1.67;;;6.30;99.90;;;;;;5037407;28;21967;-70
2022/04/05 08:05:07;;;;;;;4.03;1.20;;;6.40;99.90;;;;;;5038990;28;20466;-70
2022/04/05 08:07:56;;;;;;;10.10;1.57;;;6.40;99.90;;;;;;5040074;28;20493;-70
2022/04/05 08:10:45;;;;;;;7.23;1.47;;;6.40;99.90;;;;;;5036383;28;20602;-70
2022/04/05 08:13:33;;;;;;;2.20;1.40;;;6.40;99.90;;;;;;5036655;28;20447;-70
2022/04/05 08:16:22;;;;;;;2.63;1.17;;;6.40;99.90;;;;;;5032333;28;20479;-70
2022/04/05 08:19:11;;;;;;;4.80;1.30;;;6.40;99.90;;;;;;5035593;28;20442;-69
2022/04/05 08:22:00;;;;;;;5.53;1.50;;;6.40;99.90;;;;;;5033091;28;20485;-70
2022/04/05 08:24:48;;;;;;;4.87;1.80;;;6.40;99.90;;;;;;5035158;28;20551;-69
2022/04/05 08:27:37;;;;;;;5.77;1.30;;;6.40;99.90;;;;;;5040047;28;20455;-69
2022/04/05 08:30:26;;;;;;;7.70;2.33;;;6.40;99.90;;;;;;5030713;28;20584;-70
2022/04/05 08:33:14;;;;;;;5.80;1.80;;;6.50;99.90;;;;;;5032903;28;20463;-70
2022/04/05 08:36:03;;;;;;;4.07;1.77;;;6.50;99.90;;;;;;5032599;28;20658;-70
2022/04/05 08:38:51;;;;;;;4.63;1.50;;;6.50;99.90;;;;;;5036872;28;20503;-70
2022/04/05 08:41:43;;;;;;;3.83;1.80;;;6.50;99.90;;;;;;5034978;28;20532;-68
2022/04/05 08:44:33;;;;;;;8.30;2.10;;;6.50;99.90;;;;;;5038391;28;20616;-70
2022/04/05 08:47:23;;;;;;;6.20;2.23;;;6.50;99.90;;;;;;5035180;28;20697;-70
2022/04/05 08:50:11;;;;;;;4.80;1.60;;;6.60;99.90;;;;;;5035012;28;20459;-70
2022/04/05 08:53:00;;;;;;;3.53;1.50;;;6.60;99.90;;;;;;5032748;28;20490;-70
2022/04/05 08:55:54;;;;;;;3.40;1.17;;;6.50;99.90;;;;;;5038517;28;20470;-70
2022/04/05 08:58:43;;;;;;;2.43;0.97;;;6.30;99.90;;;;;;5039569;28;20624;-69
2022/04/05 09:01:34;;;;;;;2.60;1.00;;;6.30;99.90;;;;;;5037038;28;20503;-70
2022/04/05 09:04:22;;;;;;;2.10;1.00;;;6.20;99.90;;;;;;5029338;28;20485;-70
2022/04/05 09:07:20;;;;;;;2.30;1.67;;;6.20;99.90;;;;;;5033997;28;20536;-69
2022/04/05 09:10:12;;;;;;;1.53;0.90;;;6.30;99.90;;;;;;5032276;28;20489;-70
2022/04/05 09:13:00;;;;;;;5.10;1.40;;;6.30;99.90;;;;;;5031616;28;20531;-70
2022/04/05 09:15:51;;;;;;;2.80;1.23;;;6.50;99.90;;;;;;5036616;28;20664;-69
2022/04/05 09:18:44;;;;;;;3.47;1.30;;;6.60;99.90;;;;;;5039409;28;21151;-70
2022/04/05 09:21:51;;;;;;;2.17;1.33;;;6.70;99.90;;;;;;5035527;28;21024;-70
2022/04/05 09:24:43;;;;;;;1.73;1.23;;;6.80;99.90;;;;;;5032222;28;20470;-69
2022/04/05 09:27:44;;;;;;;2.30;1.00;;;6.80;99.90;;;;;;5033647;28;20540;-69
2022/04/05 09:30:32;;;;;;;4.57;1.93;;;6.90;99.90;;;;;;5040939;28;20450;-69
2022/04/05 09:33:20;;;;;;;1.97;1.10;;;6.90;99.90;;;;;;5033977;28;20439;-69
2022/04/05 09:36:15;;;;;;;2.50;1.03;;;6.90;99.90;;;;;;5036868;28;20458;-69
2022/04/05 09:39:17;;;;;;;5.37;1.20;;;6.80;99.90;;;;;;5028602;28;20538;-69
2022/04/05 09:42:08;;;;;;;4.00;1.40;;;6.80;99.90;;;;;;5037519;28;20446;-69
2022/04/05 09:44:57;;;;;;;3.17;1.10;;;6.70;99.90;;;;;;5030917;28;20481;-69
2022/04/05 09:48:03;;;;;;;1.47;1.03;;;6.70;99.90;;;;;;5031387;28;20599;-69
2022/04/05 09:51:03;;;;;;;2.70;1.60;;;6.70;99.90;;;;;;5032298;28;20461;-69
2022/04/05 09:53:57;;;;;;;5.33;1.73;;;6.60;99.90;;;;;;5039964;28;20821;-69
2022/04/05 09:56:45;;;;;;;6.43;1.60;;;6.60;99.90;;;;;;5039441;28;20475;-69
2022/04/05 09:59:42;;;;;;;1.80;1.20;;;6.60;99.90;;;;;;5035934;28;20484;-69
2022/04/05 10:02:31;;;;;;;3.90;1.30;;;6.60;99.90;;;;;;5031087;28;20481;-69
2022/04/05 10:05:20;;;;;;;2.43;1.30;;;6.60;99.90;;;;;;5045851;28;21000;-68
2022/04/05 10:08:08;;;;;;;3.80;1.10;;;6.60;99.90;;;;;;5036794;28;20454;-69
2022/04/05 10:10:58;;;;;;;3.50;1.20;;;6.70;99.90;;;;;;5035599;28;20885;-69
2022/04/05 10:13:46;;;;;;;4.57;1.10;;;6.70;99.90;;;;;;5046968;28;20548;-69
2022/04/05 10:16:35;;;;;;;4.27;1.70;;;6.70;99.90;;;;;;5042556;28;20482;-70
2022/04/05 10:19:28;;;;;;;4.20;1.60;;;6.70;99.90;;;;;;5036261;28;20483;-70
2022/04/05 10:22:18;;;;;;;4.20;1.83;;;6.70;99.90;;;;;;5038852;28;21201;-69
2022/04/05 10:25:08;;;;;;;3.03;1.23;;;6.80;99.90;;;;;;5041171;28;20470;-69
2022/04/05 10:27:57;;;;;;;4.20;1.33;;;6.90;99.90;;;;;;5038717;28;20466;-69
2022/04/05 10:30:54;;;;;;;4.40;1.50;;;6.90;99.90;;;;;;5031950;28;21056;-70
2022/04/05 10:33:50;;;;;;;2.67;1.20;;;7.00;99.90;;;;;;5039258;28;20459;-69
2022/04/05 10:36:38;;;;;;;3.67;1.47;;;7.00;99.90;;;;;;5037785;28;20466;-69
2022/04/05 10:39:26;;;;;;;3.47;1.40;;;7.00;99.90;;;;;;5037065;28;20494;-69
2022/04/05 10:42:20;;;;;;;3.93;1.30;;;7.10;99.90;;;;;;5043481;28;20454;-69
2022/04/05 10:45:13;;;;;;;3.70;1.57;;;7.10;99.90;;;;;;5035583;28;20513;-70
2022/04/05 10:48:14;;;;;;;3.33;1.40;;;7.20;99.90;;;;;;5035994;28;20490;-70
2022/04/05 10:51:30;;;;;;;1.50;1.10;;;7.10;99.90;;;;;;5039920;28;20459;-70
2022/04/05 10:54:18;;;;;;;5.33;1.90;;;7.10;99.90;;;;;;5044617;28;21017;-69
2022/04/05 10:57:27;;;;;;;6.60;1.70;;;7.20;99.90;;;;;;5039699;28;20487;-70
2022/04/05 11:00:25;;;;;;;3.03;1.20;;;7.10;99.90;;;;;;5034012;28;20973;-70
2022/04/05 11:03:14;;;;;;;2.83;1.13;;;7.10;99.90;;;;;;5037980;28;20448;-70
2022/04/05 11:06:03;;;;;;;3.07;1.13;;;7.10;99.90;;;;;;5034669;28;20462;-70
2022/04/05 11:08:52;;;;;;;3.77;1.30;;;7.10;99.90;;;;;;5037214;28;20512;-70
2022/04/05 11:11:42;;;;;;;3.03;1.20;;;7.20;99.90;;;;;;5024371;28;20593;-70
2022/04/05 11:14:37;;;;;;;2.60;1.43;;;7.20;99.90;;;;;;5031973;28;20482;-70
2022/04/05 11:17:28;;;;;;;3.20;1.60;;;7.20;99.90;;;;;;5032876;28;20446;-70
2022/04/05 11:20:17;;;;;;;3.97;1.50;;;7.10;99.90;;;;;;5038916;28;20609;-70
2022/04/05 11:23:06;;;;;;;3.43;1.50;;;7.10;99.90;;;;;;5035998;28;21786;-70
2022/04/05 11:25:54;;;;;;;5.67;1.70;;;7.00;99.90;;;;;;5037779;28;20482;-69
2022/04/05 11:28:46;;;;;;;1.97;1.30;;;7.00;99.90;;;;;;5043938;28;20545;-69
2022/04/05 11:31:37;;;;;;;2.53;1.47;;;7.00;99.90;;;;;;5031977;28;21236;-69
2022/04/05 11:34:37;;;;;;;2.43;1.30;;;7.00;99.90;;;;;;5038997;28;20487;-69
2022/04/05 11:37:34;;;;;;;3.37;1.40;;;7.00;99.90;;;;;;5035514;28;20459;-69
2022/04/05 11:40:24;;;;;;;2.90;1.10;;;7.00;99.90;;;;;;5019300;28;20498;-70
2022/04/05 11:43:19;;;;;;;3.43;1.40;;;6.90;99.90;;;;;;5035480;28;20545;-70
2022/04/05 11:46:11;;;;;;;1.57;1.20;;;7.00;99.90;;;;;;5040921;28;20550;-70
2022/04/05 11:49:01;;;;;;;1.53;1.10;;;7.00;99.90;;;;;;5022641;28;20463;-70
2022/04/05 11:51:51;;;;;;;5.00;1.50;;;7.00;99.90;;;;;;5032670;28;21026;-70
2022/04/05 11:57:45;;;;;;;2.80;1.50;;;6.90;99.90;;;;;;5031301;28;20529;-69
2022/04/05 12:00:34;;;;;;;2.57;1.57;;;6.90;99.90;;;;;;5030350;28;20553;-70
2022/04/05 12:03:25;;;;;;;2.53;1.10;;;6.90;99.90;;;;;;5033281;28;20467;-70
2022/04/05 12:06:17;;;;;;;6.73;1.70;;;7.00;99.90;;;;;;5032449;28;20443;-69
2022/04/05 12:09:09;;;;;;;2.13;1.10;;;7.10;99.90;;;;;;5027632;28;20447;-69
2022/04/05 12:11:57;;;;;;;3.63;1.50;;;7.20;99.90;;;;;;5027957;28;20471;-69
2022/04/05 12:14:45;;;;;;;2.83;1.20;;;7.20;99.90;;;;;;5032912;28;20478;-68
2022/04/05 12:17:33;;;;;;;2.83;1.30;;;7.20;99.90;;;;;;5035190;28;20539;-69
2022/04/05 12:20:21;;;;;;;2.60;1.30;;;7.30;99.90;;;;;;5019915;28;20533;-69
2022/04/05 12:23:19;;;;;;;2.70;1.10;;;7.40;99.90;;;;;;5022758;28;20954;-69
2022/04/05 12:26:11;;;;;;;3.13;1.33;;;7.30;99.90;;;;;;5032124;28;20532;-69
2022/04/05 12:29:00;;;;;;;2.30;1.30;;;7.30;99.90;;;;;;5011832;28;20497;-69
2022/04/05 12:31:48;;;;;;;2.97;1.37;;;7.30;99.90;;;;;;5022604;28;20544;-68
2022/04/05 12:34:37;;;;;;;1.77;1.00;;;7.40;99.90;;;;;;5022069;28;20525;-69
2022/04/05 12:37:25;;;;;;;2.30;1.23;;;7.40;99.90;;;;;;5029422;28;20576;-69
2022/04/05 12:40:22;;;;;;;1.87;0.93;;;7.50;99.90;;;;;;5027179;28;20479;-69
2022/04/05 12:43:17;;;;;;;1.87;1.20;;;7.60;99.90;;;;;;5031972;28;20463;-69
2022/04/05 12:46:11;;;;;;;2.73;1.57;;;7.60;99.90;;;;;;5023870;28;20446;-69
2022/04/05 12:49:14;;;;;;;3.00;1.47;;;7.70;99.90;;;;;;5028264;28;20817;-69
2022/04/05 12:52:24;;;;;;;2.20;1.23;;;7.60;99.90;;;;;;5036303;28;20450;-68
2022/04/05 12:55:15;;;;;;;1.90;1.20;;;7.50;99.90;;;;;;5014872;28;20454;-69
2022/04/05 12:58:04;;;;;;;3.77;1.20;;;7.50;99.90;;;;;;5029955;28;20450;-70
2022/04/05 13:00:53;;;;;;;1.83;1.30;;;7.60;99.90;;;;;;5030970;28;20990;-69
2022/04/05 13:03:41;;;;;;;2.13;1.50;;;7.50;99.90;;;;;;5026444;28;20451;-69
2022/04/05 13:06:31;;;;;;;2.40;1.23;;;7.60;99.90;;;;;;5023991;28;20454;-69
2022/04/05 13:09:28;;;;;;;5.03;1.93;;;7.50;99.90;;;;;;5032466;28;20449;-70
2022/04/05 13:12:18;;;;;;;2.63;1.40;;;7.40;99.90;;;;;;5032895;28;20449;-69
2022/04/05 13:15:11;;;;;;;4.97;1.87;;;7.30;99.90;;;;;;5028205;28;20636;-69
2022/04/05 13:18:06;;;;;;;2.50;1.60;;;7.40;99.90;;;;;;5031360;28;20475;-70
2022/04/05 13:20:58;;;;;;;2.50;1.33;;;7.40;99.90;;;;;;5025423;28;20949;-70
2022/04/05 13:24:00;;;;;;;2.20;1.53;;;7.50;99.90;;;;;;5028626;28;20853;-70
2022/04/05 13:26:50;;;;;;;1.97;1.10;;;7.40;99.90;;;;;;5036384;28;20461;-69
2022/04/05 13:29:42;;;;;;;2.50;1.50;;;7.40;99.90;;;;;;5030195;28;20446;-69
2022/04/05 13:32:34;;;;;;;3.57;1.77;;;7.40;99.90;;;;;;5031371;28;20450;-69
2022/04/05 13:35:48;;;;;;;2.73;1.60;;;7.40;99.90;;;;;;5031720;28;20475;-71
2022/04/05 13:38:37;;;;;;;4.00;1.77;;;7.40;99.90;;;;;;5025693;28;20510;-69
2022/04/05 13:41:26;;;;;;;2.90;1.83;;;7.30;99.90;;;;;;5024854;28;21030;-69
2022/04/05 13:44:14;;;;;;;2.37;1.70;;;7.30;99.90;;;;;;5011293;28;20483;-70
2022/04/05 13:47:04;;;;;;;3.00;2.30;;;7.30;99.90;;;;;;5017314;28;20489;-70
2022/04/05 13:49:52;;;;;;;2.00;1.30;;;7.30;99.90;;;;;;5031025;28;20546;-70
2022/04/05 13:52:42;;;;;;;1.40;1.30;;;7.30;99.90;;;;;;5013528;28;20906;-70
2022/04/05 13:55:31;;;;;;;1.60;1.27;;;7.30;99.90;;;;;;5017014;28;20475;-70
2022/04/05 13:58:19;;;;;;;1.90;1.33;;;7.30;99.90;;;;;;5021162;28;20569;-70
2022/04/05 14:01:08;;;;;;;1.83;1.30;;;7.30;99.90;;;;;;5020560;28;20506;-70
2022/04/05 14:03:57;;;;;;;3.80;1.13;;;7.30;99.90;;;;;;5023630;28;20835;-70
2022/04/05 14:06:45;;;;;;;2.80;1.40;;;7.30;99.90;;;;;;5012194;28;20454;-70
2022/04/05 14:09:35;;;;;;;1.20;1.07;;;7.20;99.90;;;;;;5020212;28;20461;-71
2022/04/05 14:12:23;;;;;;;2.10;1.40;;;7.10;99.90;;;;;;5008833;28;20457;-70
2022/04/05 14:15:14;;;;;;;2.03;1.23;;;7.10;99.90;;;;;;5023203;28;20897;-70
2022/04/05 14:18:04;;;;;;;1.60;1.47;;;7.10;99.90;;;;;;5024606;28;20459;-71
2022/04/05 14:20:52;;;;;;;1.30;1.20;;;7.10;99.90;;;;;;5028768;28;20570;-70
2022/04/05 14:23:43;;;;;;;3.73;1.07;;;7.20;99.90;;;;;;5029281;28;20873;-70
2022/04/05 14:26:33;;;;;;;1.63;1.40;;;7.10;99.90;;;;;;5016532;28;21126;-71
2022/04/05 14:29:21;;;;;;;2.27;1.40;;;7.10;99.90;;;;;;5020181;28;20459;-71
2022/04/05 14:32:10;;;;;;;2.03;1.33;;;7.10;99.90;;;;;;5021433;28;20485;-70
2022/04/05 14:35:01;;;;;;;1.97;1.53;;;7.10;99.90;;;;;;5031218;28;20577;-70
2022/04/05 14:38:09;;;;;;;2.30;1.30;;;7.00;99.90;;;;;;5012456;28;20454;-70
2022/04/05 14:40:57;;;;;;;1.47;1.10;;;7.10;99.90;;;;;;5033085;28;20478;-71
2022/04/05 14:43:47;;;;;;;3.43;1.50;;;7.00;99.90;;;;;;5027786;28;20469;-70
2022/04/05 14:46:38;;;;;;;2.57;1.50;;;7.10;99.90;;;;;;5019869;28;20487;-70
2022/04/05 14:49:27;;;;;;;1.40;1.30;;;7.00;99.90;;;;;;5015961;28;20500;-70
2022/04/05 14:52:16;;;;;;;1.93;1.27;;;7.00;99.90;;;;;;5017581;28;20548;-70
2022/04/05 14:55:06;;;;;;;1.40;1.10;;;7.00;99.90;;;;;;5030805;28;20466;-70
2022/04/05 14:57:57;;;;;;;1.13;1.03;;;7.00;99.90;;;;;;5032718;28;20535;-70
2022/04/05 15:00:47;;;;;;;1.20;1.00;;;7.00;99.90;;;;;;5026520;28;20851;-70